sensor_id;sensor_type;location;lat;lon;timestamp;pressure;altitude;pressure_sealevel;temperature;humidity
72959;BME280;60008;50.826;6.896;2022-09-09T00:04:26;100276.25;;;16.74;79.54
72959;BME280;60008;50.826;6.896;2022-09-09T00:07:21;100284.72;;;16.71;80.33
72959;BME280;60008;50.826;6.896;2022-09-09T00:10:40;100279.38;;;16.71;80.44
72959;BME280;60008;50.826;6.896;2022-09-09T00:15:25;100268.03;;;16.69;80.90
72959;BME280;60008;50.826;6.896;2022-09-09T00:21:21;100277.53;;;16.65;80.49
72959;BME280;60008;50.826;6.896;2022-09-09T00:23:55;100269.31;;;16.60;81.61
72959;BME280;60008;50.826;6.896;2022-09-09T00:29:32;100274.47;;;16.55;81.28
72959;BME280;60008;50.826;6.896;2022-09-09T00:32:09;100277.16;;;16.55;81.83
72959;BME280;60008;50.826;6.896;2022-09-09T00:34:46;100272.59;;;16.55;81.90
72959;BME280;60008;50.826;6.896;2022-09-09T00:37:13;100270.97;;;16.54;82.16
72959;BME280;60008;50.826;6.896;2022-09-09T00:39:43;100276.31;;;16.48;82.85
72959;BME280;60008;50.826;6.896;2022-09-09T00:42:18;100271.38;;;16.51;83.46
72959;BME280;60008;50.826;6.896;2022-09-09T00:48:00;100279.19;;;16.40;83.91
72959;BME280;60008;50.826;6.896;2022-09-09T00:58:32;100273.66;;;16.35;84.17
72959;BME280;60008;50.826;6.896;2022-09-09T01:03:35;100272.41;;;16.31;84.94
72959;BME280;60008;50.826;6.896;2022-09-09T01:06:12;100276.56;;;16.33;85.06
72959;BME280;60008;50.826;6.896;2022-09-09T01:09:01;100280.03;;;16.34;84.46
72959;BME280;60008;50.826;6.896;2022-09-09T01:14:29;100268.72;;;16.32;84.86
72959;BME280;60008;50.826;6.896;2022-09-09T01:17:01;100261.94;;;16.23;85.00
72959;BME280;60008;50.826;6.896;2022-09-09T01:25:27;100257.69;;;15.89;88.16
72959;BME280;60008;50.826;6.896;2022-09-09T01:27:58;100266.94;;;15.86;87.89
72959;BME280;60008;50.826;6.896;2022-09-09T01:30:26;100266.31;;;15.78;88.46
72959;BME280;60008;50.826;6.896;2022-09-09T01:32:55;100269.41;;;15.81;88.65
72959;BME280;60008;50.826;6.896;2022-09-09T01:37:54;100264.69;;;15.70;89.41
72959;BME280;60008;50.826;6.896;2022-09-09T01:40:20;100261.81;;;15.65;90.46
72959;BME280;60008;50.826;6.896;2022-09-09T01:42:47;100265.09;;;15.54;89.57
72959;BME280;60008;50.826;6.896;2022-09-09T01:45:13;100269.38;;;15.55;91.32
72959;BME280;60008;50.826;6.896;2022-09-09T01:47:41;100267.34;;;15.57;90.56
72959;BME280;60008;50.826;6.896;2022-09-09T01:50:09;100269.19;;;15.63;90.55
72959;BME280;60008;50.826;6.896;2022-09-09T01:52:38;100269.41;;;15.62;89.98
72959;BME280;60008;50.826;6.896;2022-09-09T01:55:05;100276.41;;;15.76;89.09
72959;BME280;60008;50.826;6.896;2022-09-09T02:00:42;100266.50;;;15.76;89.57
72959;BME280;60008;50.826;6.896;2022-09-09T02:03:23;100266.13;;;15.73;88.53
72959;BME280;60008;50.826;6.896;2022-09-09T02:06:14;100265.50;;;15.77;89.08
72959;BME280;60008;50.826;6.896;2022-09-09T02:08:52;100262.41;;;15.80;87.08
72959;BME280;60008;50.826;6.896;2022-09-09T02:11:22;100269.00;;;15.91;88.47
72959;BME280;60008;50.826;6.896;2022-09-09T02:13:51;100268.38;;;15.89;88.25
72959;BME280;60008;50.826;6.896;2022-09-09T02:16:26;100275.34;;;15.90;87.90
72959;BME280;60008;50.826;6.896;2022-09-09T02:21:30;100274.75;;;15.94;87.99
72959;BME280;60008;50.826;6.896;2022-09-09T02:23:59;100273.09;;;16.00;87.06
72959;BME280;60008;50.826;6.896;2022-09-09T02:26:32;100272.91;;;15.95;86.49
72959;BME280;60008;50.826;6.896;2022-09-09T02:29:03;100265.28;;;15.98;87.36
72959;BME280;60008;50.826;6.896;2022-09-09T02:31:32;100277.22;;;15.96;86.96
72959;BME280;60008;50.826;6.896;2022-09-09T02:34:03;100270.66;;;15.92;86.65
72959;BME280;60008;50.826;6.896;2022-09-09T02:36:32;100265.50;;;15.97;87.53
72959;BME280;60008;50.826;6.896;2022-09-09T02:39:01;100270.84;;;15.97;87.51
72959;BME280;60008;50.826;6.896;2022-09-09T02:41:40;100267.56;;;15.95;87.91
72959;BME280;60008;50.826;6.896;2022-09-09T02:44:11;100262.81;;;15.97;87.93
72959;BME280;60008;50.826;6.896;2022-09-09T02:47:10;100259.13;;;15.98;86.98
72959;BME280;60008;50.826;6.896;2022-09-09T02:52:19;100256.66;;;15.96;87.59
72959;BME280;60008;50.826;6.896;2022-09-09T02:54:51;100254.16;;;16.01;86.46
72959;BME280;60008;50.826;6.896;2022-09-09T02:57:27;100253.56;;;16.06;87.03
72959;BME280;60008;50.826;6.896;2022-09-09T02:59:57;100252.75;;;16.05;86.49
72959;BME280;60008;50.826;6.896;2022-09-09T03:02:25;100258.28;;;16.11;87.30
72959;BME280;60008;50.826;6.896;2022-09-09T03:04:51;100245.34;;;16.07;87.32
72959;BME280;60008;50.826;6.896;2022-09-09T03:07:19;100244.09;;;16.03;87.27
72959;BME280;60008;50.826;6.896;2022-09-09T03:09:45;100250.25;;;16.04;87.52
72959;BME280;60008;50.826;6.896;2022-09-09T03:12:12;100241.84;;;16.00;87.78
72959;BME280;60008;50.826;6.896;2022-09-09T03:14:41;100249.25;;;15.98;87.73
72959;BME280;60008;50.826;6.896;2022-09-09T03:17:09;100241.03;;;15.93;87.81
72959;BME280;60008;50.826;6.896;2022-09-09T03:19:35;100247.41;;;15.92;89.28
72959;BME280;60008;50.826;6.896;2022-09-09T03:22:02;100250.91;;;15.80;88.97
72959;BME280;60008;50.826;6.896;2022-09-09T03:24:30;100249.69;;;15.76;88.76
72959;BME280;60008;50.826;6.896;2022-09-09T03:26:56;100245.56;;;15.80;89.98
72959;BME280;60008;50.826;6.896;2022-09-09T03:29:23;100244.13;;;15.84;90.97
72959;BME280;60008;50.826;6.896;2022-09-09T03:31:50;100249.25;;;15.72;89.39
72959;BME280;60008;50.826;6.896;2022-09-09T03:34:17;100249.28;;;15.79;90.77
72959;BME280;60008;50.826;6.896;2022-09-09T03:36:43;100254.63;;;15.79;91.26
72959;BME280;60008;50.826;6.896;2022-09-09T03:39:10;100256.25;;;15.80;91.38
72959;BME280;60008;50.826;6.896;2022-09-09T03:41:37;100247.19;;;15.87;90.08
72959;BME280;60008;50.826;6.896;2022-09-09T03:44:03;100251.09;;;15.91;89.63
72959;BME280;60008;50.826;6.896;2022-09-09T03:46:30;100252.31;;;16.02;89.57
72959;BME280;60008;50.826;6.896;2022-09-09T03:48:57;100246.16;;;16.01;88.83
72959;BME280;60008;50.826;6.896;2022-09-09T03:51:24;100253.75;;;16.04;89.70
72959;BME280;60008;50.826;6.896;2022-09-09T03:53:50;100252.34;;;16.08;88.95
72959;BME280;60008;50.826;6.896;2022-09-09T03:56:17;100248.38;;;16.18;87.69
72959;BME280;60008;50.826;6.896;2022-09-09T03:58:43;100251.06;;;16.24;87.05
72959;BME280;60008;50.826;6.896;2022-09-09T04:01:14;100245.91;;;16.36;85.70
72959;BME280;60008;50.826;6.896;2022-09-09T04:03:40;100244.66;;;16.38;85.82
72959;BME280;60008;50.826;6.896;2022-09-09T04:06:08;100240.09;;;16.39;85.45
72959;BME280;60008;50.826;6.896;2022-09-09T04:08:35;100243.19;;;16.42;84.87
72959;BME280;60008;50.826;6.896;2022-09-09T04:11:02;100237.22;;;16.47;84.60
72959;BME280;60008;50.826;6.896;2022-09-09T04:13:32;100244.81;;;16.50;85.00
72959;BME280;60008;50.826;6.896;2022-09-09T04:16:00;100241.94;;;16.51;84.51
72959;BME280;60008;50.826;6.896;2022-09-09T04:18:27;100246.47;;;16.51;83.96
72959;BME280;60008;50.826;6.896;2022-09-09T04:20:57;100239.06;;;16.53;83.73
72959;BME280;60008;50.826;6.896;2022-09-09T04:23:26;100246.06;;;16.54;83.68
72959;BME280;60008;50.826;6.896;2022-09-09T04:25:57;100254.91;;;16.54;83.67
72959;BME280;60008;50.826;6.896;2022-09-09T04:28:26;100248.31;;;16.50;84.13
72959;BME280;60008;50.826;6.896;2022-09-09T04:30:53;100254.72;;;16.49;83.71
72959;BME280;60008;50.826;6.896;2022-09-09T04:33:20;100249.97;;;16.51;84.01
72959;BME280;60008;50.826;6.896;2022-09-09T04:35:48;100246.47;;;16.57;83.64
72959;BME280;60008;50.826;6.896;2022-09-09T04:38:19;100244.00;;;16.56;83.45
72959;BME280;60008;50.826;6.896;2022-09-09T04:40:50;100245.84;;;16.55;83.78
72959;BME280;60008;50.826;6.896;2022-09-09T04:43:18;100253.06;;;16.55;84.49
72959;BME280;60008;50.826;6.896;2022-09-09T04:45:47;100252.84;;;16.56;84.11
72959;BME280;60008;50.826;6.896;2022-09-09T04:48:15;100249.34;;;16.56;84.10
72959;BME280;60008;50.826;6.896;2022-09-09T04:50:41;100255.13;;;16.53;84.26
72959;BME280;60008;50.826;6.896;2022-09-09T04:53:08;100267.63;;;16.52;83.90
72959;BME280;60008;50.826;6.896;2022-09-09T04:55:34;100255.13;;;16.53;83.70
72959;BME280;60008;50.826;6.896;2022-09-09T04:58:05;100252.81;;;16.50;83.86
72959;BME280;60008;50.826;6.896;2022-09-09T05:00:33;100248.91;;;16.52;83.84
72959;BME280;60008;50.826;6.896;2022-09-09T05:03:03;100260.47;;;16.53;84.14
72959;BME280;60008;50.826;6.896;2022-09-09T05:05:31;100246.22;;;16.52;83.98
72959;BME280;60008;50.826;6.896;2022-09-09T05:08:06;100247.69;;;16.48;83.91
72959;BME280;60008;50.826;6.896;2022-09-09T05:10:34;100248.31;;;16.50;84.13
72959;BME280;60008;50.826;6.896;2022-09-09T05:13:02;100249.13;;;16.51;83.39
72959;BME280;60008;50.826;6.896;2022-09-09T05:15:29;100247.91;;;16.53;83.91
72959;BME280;60008;50.826;6.896;2022-09-09T05:17:59;100251.19;;;16.55;83.33
72959;BME280;60008;50.826;6.896;2022-09-09T05:20:26;100260.84;;;16.50;83.19
72959;BME280;60008;50.826;6.896;2022-09-09T05:22:54;100259.59;;;16.52;83.53
72959;BME280;60008;50.826;6.896;2022-09-09T05:25:20;100257.78;;;16.53;82.86
72959;BME280;60008;50.826;6.896;2022-09-09T05:27:48;100255.53;;;16.56;81.53
72959;BME280;60008;50.826;6.896;2022-09-09T05:30:15;100257.59;;;16.54;82.89
72959;BME280;60008;50.826;6.896;2022-09-09T05:32:42;100264.78;;;16.54;82.51
72959;BME280;60008;50.826;6.896;2022-09-09T05:35:09;100266.66;;;16.53;82.34
72959;BME280;60008;50.826;6.896;2022-09-09T05:37:36;100260.66;;;16.51;81.51
72959;BME280;60008;50.826;6.896;2022-09-09T05:40:02;100267.03;;;16.50;81.30
72959;BME280;60008;50.826;6.896;2022-09-09T05:42:30;100257.59;;;16.54;81.14
72959;BME280;60008;50.826;6.896;2022-09-09T05:44:57;100249.34;;;16.56;80.38
72959;BME280;60008;50.826;6.896;2022-09-09T05:47:24;100255.53;;;16.56;80.98
72959;BME280;60008;50.826;6.896;2022-09-09T05:49:54;100260.22;;;16.61;81.09
72959;BME280;60008;50.826;6.896;2022-09-09T05:52:21;100258.59;;;16.60;80.47
72959;BME280;60008;50.826;6.896;2022-09-09T05:54:48;100260.88;;;16.63;80.75
72959;BME280;60008;50.826;6.896;2022-09-09T05:57:15;100264.31;;;16.70;80.28
72959;BME280;60008;50.826;6.896;2022-09-09T05:59:42;100267.41;;;16.74;80.66
72959;BME280;60008;50.826;6.896;2022-09-09T06:02:08;100265.75;;;16.73;80.33
72959;BME280;60008;50.826;6.896;2022-09-09T06:04:35;100260.41;;;16.73;80.47
72959;BME280;60008;50.826;6.896;2022-09-09T06:07:02;100265.53;;;16.74;80.21
72959;BME280;60008;50.826;6.896;2022-09-09T06:09:29;100268.22;;;16.74;80.03
72959;BME280;60008;50.826;6.896;2022-09-09T06:11:57;100271.72;;;16.75;81.37
72959;BME280;60008;50.826;6.896;2022-09-09T06:14:24;100276.88;;;16.70;80.85
72959;BME280;60008;50.826;6.896;2022-09-09T06:16:51;100271.94;;;16.66;81.44
72959;BME280;60008;50.826;6.896;2022-09-09T06:19:18;100274.81;;;16.72;81.45
72959;BME280;60008;50.826;6.896;2022-09-09T06:21:46;100273.97;;;16.78;80.54
72959;BME280;60008;50.826;6.896;2022-09-09T06:24:14;100279.56;;;16.70;81.58
72959;BME280;60008;50.826;6.896;2022-09-09T06:26:43;100273.38;;;16.69;81.80
72959;BME280;60008;50.826;6.896;2022-09-09T06:29:11;100277.06;;;16.81;81.88
72959;BME280;60008;50.826;6.896;2022-09-09T06:31:38;100277.06;;;16.75;81.97
72959;BME280;60008;50.826;6.896;2022-09-09T06:34:06;100268.84;;;16.70;80.79
72959;BME280;60008;50.826;6.896;2022-09-09T06:36:35;100271.34;;;16.64;81.49
72959;BME280;60008;50.826;6.896;2022-09-09T06:39:04;100266.63;;;16.60;82.13
72959;BME280;60008;50.826;6.896;2022-09-09T06:41:32;100261.47;;;16.58;82.09
72959;BME280;60008;50.826;6.896;2022-09-09T06:43:59;100265.59;;;16.61;81.28
72959;BME280;60008;50.826;6.896;2022-09-09T06:46:28;100260.47;;;16.59;83.22
72959;BME280;60008;50.826;6.896;2022-09-09T06:48:56;100261.28;;;16.60;82.49
72959;BME280;60008;50.826;6.896;2022-09-09T06:51:33;100267.59;;;16.72;80.96
72959;BME280;60008;50.826;6.896;2022-09-09T06:54:01;100268.78;;;16.83;81.11
72959;BME280;60008;50.826;6.896;2022-09-09T06:56:37;100259.28;;;16.93;79.97
72959;BME280;60008;50.826;6.896;2022-09-09T06:59:07;100258.81;;;17.03;79.39
72959;BME280;60008;50.826;6.896;2022-09-09T07:01:38;100254.66;;;17.07;79.24
72959;BME280;60008;50.826;6.896;2022-09-09T07:04:06;100258.56;;;17.11;79.98
72959;BME280;60008;50.826;6.896;2022-09-09T07:06:37;100258.09;;;17.20;78.17
72959;BME280;60008;50.826;6.896;2022-09-09T07:09:07;100246.69;;;17.32;76.27
72959;BME280;60008;50.826;6.896;2022-09-09T07:11:40;100259.03;;;17.39;77.14
72959;BME280;60008;50.826;6.896;2022-09-09T07:14:08;100264.50;;;17.51;73.54
72959;BME280;60008;50.826;6.896;2022-09-09T07:16:35;100260.56;;;17.60;74.36
72959;BME280;60008;50.826;6.896;2022-09-09T07:19:03;100260.31;;;17.61;73.04
72959;BME280;60008;50.826;6.896;2022-09-09T07:21:31;100259.88;;;17.64;73.08
72959;BME280;60008;50.826;6.896;2022-09-09T07:23:58;100268.28;;;17.74;72.38
72959;BME280;60008;50.826;6.896;2022-09-09T07:26:27;100273.13;;;17.84;71.99
72959;BME280;60008;50.826;6.896;2022-09-09T07:28:55;100275.94;;;17.96;71.77
72959;BME280;60008;50.826;6.896;2022-09-09T07:31:29;100274.53;;;18.11;70.61
72959;BME280;60008;50.826;6.896;2022-09-09T07:33:58;100279.34;;;18.27;70.43
72959;BME280;60008;50.826;6.896;2022-09-09T07:36:34;100283.53;;;18.23;69.83
72959;BME280;60008;50.826;6.896;2022-09-09T07:39:07;100284.25;;;18.30;69.85
72959;BME280;60008;50.826;6.896;2022-09-09T07:41:42;100290.06;;;18.27;68.94
72959;BME280;60008;50.826;6.896;2022-09-09T07:44:14;100295.44;;;18.45;68.47
72959;BME280;60008;50.826;6.896;2022-09-09T07:46:42;100296.84;;;18.30;69.98
72959;BME280;60008;50.826;6.896;2022-09-09T07:49:09;100290.47;;;18.31;69.06
72959;BME280;60008;50.826;6.896;2022-09-09T07:51:39;100302.00;;;18.56;68.47
72959;BME280;60008;50.826;6.896;2022-09-09T07:54:09;100302.06;;;18.68;69.38
72959;BME280;60008;50.826;6.896;2022-09-09T07:56:38;100306.19;;;18.45;68.22
72959;BME280;60008;50.826;6.896;2022-09-09T07:59:06;100302.38;;;18.35;68.94
72959;BME280;60008;50.826;6.896;2022-09-09T08:04:05;100306.84;;;18.41;65.74
72959;BME280;60008;50.826;6.896;2022-09-09T08:06:38;100305.81;;;18.67;64.91
72959;BME280;60008;50.826;6.896;2022-09-09T08:09:07;100309.94;;;18.81;64.88
72959;BME280;60008;50.826;6.896;2022-09-09T08:11:34;100313.56;;;18.75;65.43
72959;BME280;60008;50.826;6.896;2022-09-09T08:14:08;100317.19;;;18.98;64.60
72959;BME280;60008;50.826;6.896;2022-09-09T08:16:39;100312.13;;;18.90;63.31
72959;BME280;60008;50.826;6.896;2022-09-09T08:19:06;100308.56;;;19.26;62.52
72959;BME280;60008;50.826;6.896;2022-09-09T08:21:35;100308.78;;;19.25;61.64
72959;BME280;60008;50.826;6.896;2022-09-09T08:24:04;100304.78;;;18.97;62.60
72959;BME280;60008;50.826;6.896;2022-09-09T08:26:36;100303.97;;;18.97;61.82
72959;BME280;60008;50.826;6.896;2022-09-09T08:29:05;100303.13;;;19.15;61.08
72959;BME280;60008;50.826;6.896;2022-09-09T08:31:38;100309.41;;;19.09;61.82
72959;BME280;60008;50.826;6.896;2022-09-09T08:34:05;100313.16;;;19.37;62.36
72959;BME280;60008;50.826;6.896;2022-09-09T08:36:34;100300.47;;;20.09;58.75
72959;BME280;60008;50.826;6.896;2022-09-09T08:39:04;100299.13;;;22.27;52.10
72959;BME280;60008;50.826;6.896;2022-09-09T08:49:22;100314.47;;;19.17;61.67
72959;BME280;60008;50.826;6.896;2022-09-09T08:51:54;100312.97;;;19.80;59.81
72959;BME280;60008;50.826;6.896;2022-09-09T08:54:23;100319.50;;;19.73;61.02
72959;BME280;60008;50.826;6.896;2022-09-09T08:57:20;100325.56;;;19.68;60.65
72959;BME280;60008;50.826;6.896;2022-09-09T08:59:49;100308.63;;;19.38;61.47
72959;BME280;60008;50.826;6.896;2022-09-09T09:02:36;100311.69;;;19.41;60.83
72959;BME280;60008;50.826;6.896;2022-09-09T09:05:47;100313.13;;;19.55;61.78
72959;BME280;60008;50.826;6.896;2022-09-09T09:08:26;100311.59;;;19.48;61.01
72959;BME280;60008;50.826;6.896;2022-09-09T09:10:58;100333.03;;;19.66;60.66
72959;BME280;60008;50.826;6.896;2022-09-09T09:18:51;100336.41;;;19.32;63.01
72959;BME280;60008;50.826;6.896;2022-09-09T09:21:24;100321.25;;;19.19;63.43
72959;BME280;60008;50.826;6.896;2022-09-09T09:23:58;100330.03;;;19.44;63.29
72959;BME280;60008;50.826;6.896;2022-09-09T09:26:34;100331.22;;;19.30;62.45
72959;BME280;60008;50.826;6.896;2022-09-09T09:29:11;100337.03;;;19.16;63.14
72959;BME280;60008;50.826;6.896;2022-09-09T09:31:38;100339.09;;;19.32;62.65
72959;BME280;60008;50.826;6.896;2022-09-09T09:34:05;100331.94;;;19.26;62.53
72959;BME280;60008;50.826;6.896;2022-09-09T09:36:39;100337.34;;;19.08;62.47
72959;BME280;60008;50.826;6.896;2022-09-09T09:39:07;100335.19;;;19.46;61.88
72959;BME280;60008;50.826;6.896;2022-09-09T09:41:56;100322.50;;;21.27;58.05
72959;BME280;60008;50.826;6.896;2022-09-09T09:44:25;100321.84;;;21.08;56.23
72959;BME280;60008;50.826;6.896;2022-09-09T09:46:52;100326.28;;;20.51;60.67
72959;BME280;60008;50.826;6.896;2022-09-09T09:49:19;100329.88;;;20.34;59.86
72959;BME280;60008;50.826;6.896;2022-09-09T09:51:46;100328.72;;;19.77;60.37
72959;BME280;60008;50.826;6.896;2022-09-09T09:56:40;100319.97;;;20.97;56.53
72959;BME280;60008;50.826;6.896;2022-09-09T10:02:19;100325.38;;;21.09;56.29
72959;BME280;60008;50.826;6.896;2022-09-09T10:04:46;100331.19;;;20.43;56.07
72959;BME280;60008;50.826;6.896;2022-09-09T10:07:21;100332.75;;;20.09;58.64
72959;BME280;60008;50.826;6.896;2022-09-09T10:09:53;100334.25;;;19.82;59.28
72959;BME280;60008;50.826;6.896;2022-09-09T10:20:54;100318.44;;;20.27;56.96
72959;BME280;60008;50.826;6.896;2022-09-09T10:23:06;100323.56;;;20.40;57.35
72959;BME280;60008;50.826;6.896;2022-09-09T10:26:17;100323.53;;;21.54;54.42
72959;BME280;60008;50.826;6.896;2022-09-09T10:31:34;100327.56;;;21.68;54.68
72959;BME280;60008;50.826;6.896;2022-09-09T10:34:26;100324.19;;;20.93;57.50
72959;BME280;60008;50.826;6.896;2022-09-09T10:37:05;100329.47;;;21.84;55.26
72959;BME280;60008;50.826;6.896;2022-09-09T10:39:38;100313.06;;;22.96;50.75
72959;BME280;60008;50.826;6.896;2022-09-09T10:42:16;100315.19;;;22.01;53.89
72959;BME280;60008;50.826;6.896;2022-09-09T10:50:05;100299.41;;;22.09;53.07
72959;BME280;60008;50.826;6.896;2022-09-09T10:53:02;100318.25;;;22.42;52.00
72959;BME280;60008;50.826;6.896;2022-09-09T10:55:43;100327.88;;;20.75;55.69
72959;BME280;60008;50.826;6.896;2022-09-09T10:58:31;100316.91;;;20.42;56.09
72959;BME280;60008;50.826;6.896;2022-09-09T11:01:14;100316.75;;;21.52;52.92
72959;BME280;60008;50.826;6.896;2022-09-09T11:03:43;100313.16;;;21.46;53.30
72959;BME280;60008;50.826;6.896;2022-09-09T11:06:15;100305.06;;;21.06;53.96
72959;BME280;60008;50.826;6.896;2022-09-09T11:08:45;100310.41;;;20.78;55.66
72959;BME280;60008;50.826;6.896;2022-09-09T11:13:59;100304.16;;;20.38;56.30
72959;BME280;60008;50.826;6.896;2022-09-09T11:16:45;100299.66;;;20.55;57.47
72959;BME280;60008;50.826;6.896;2022-09-09T11:19:26;100296.84;;;20.73;56.03
72959;BME280;60008;50.826;6.896;2022-09-09T11:21:55;100299.09;;;20.41;56.74
72959;BME280;60008;50.826;6.896;2022-09-09T11:27:05;100297.31;;;20.82;55.44
72959;BME280;60008;50.826;6.896;2022-09-09T11:32:32;100290.06;;;22.72;53.92
72959;BME280;60008;50.826;6.896;2022-09-09T11:40:30;100288.94;;;21.34;54.86
72959;BME280;60008;50.826;6.896;2022-09-09T11:43:05;100279.78;;;20.96;54.28
72959;BME280;60008;50.826;6.896;2022-09-09T11:45:36;100273.88;;;21.22;53.15
72959;BME280;60008;50.826;6.896;2022-09-09T11:48:03;100279.66;;;21.02;54.12
72959;BME280;60008;50.826;6.896;2022-09-09T11:50:36;100280.84;;;20.95;54.34
72959;BME280;60008;50.826;6.896;2022-09-09T11:53:24;100287.13;;;21.12;54.58
72959;BME280;60008;50.826;6.896;2022-09-09T11:56:06;100268.84;;;20.74;54.86
72959;BME280;60008;50.826;6.896;2022-09-09T11:58:38;100283.09;;;20.35;54.99
72959;BME280;60008;50.826;6.896;2022-09-09T12:01:35;100291.13;;;20.23;55.48
72959;BME280;60008;50.826;6.896;2022-09-09T12:04:13;100292.31;;;20.15;55.24
72959;BME280;60008;50.826;6.896;2022-09-09T12:06:59;100292.56;;;20.26;56.26
72959;BME280;60008;50.826;6.896;2022-09-09T12:17:19;100283.97;;;20.17;55.27
72959;BME280;60008;50.826;6.896;2022-09-09T12:19:47;100289.50;;;20.45;56.33
72959;BME280;60008;50.826;6.896;2022-09-09T12:22:36;100291.28;;;20.40;54.89
72959;BME280;60008;50.826;6.896;2022-09-09T12:33:18;100281.44;;;20.45;55.74
72959;BME280;60008;50.826;6.896;2022-09-09T12:35:52;100279.56;;;20.46;55.71
72959;BME280;60008;50.826;6.896;2022-09-09T12:38:30;100275.47;;;20.43;56.37
72959;BME280;60008;50.826;6.896;2022-09-09T12:40:58;100276.03;;;20.45;55.71
72959;BME280;60008;50.826;6.896;2022-09-09T12:43:26;100273.34;;;20.57;56.81
72959;BME280;60008;50.826;6.896;2022-09-09T12:46:02;100271.44;;;20.69;55.92
72959;BME280;60008;50.826;6.896;2022-09-09T12:48:40;100268.91;;;20.91;55.11
72959;BME280;60008;50.826;6.896;2022-09-09T12:51:24;100265.88;;;21.27;54.37
72959;BME280;60008;50.826;6.896;2022-09-09T12:53:52;100269.81;;;20.96;55.28
72959;BME280;60008;50.826;6.896;2022-09-09T12:56:21;100269.72;;;20.91;54.32
72959;BME280;60008;50.826;6.896;2022-09-09T12:58:51;100265.75;;;20.82;54.92
72959;BME280;60008;50.826;6.896;2022-09-09T13:03:53;100268.06;;;21.02;54.85
72959;BME280;60008;50.826;6.896;2022-09-09T13:06:30;100271.53;;;20.74;56.76
72959;BME280;60008;50.826;6.896;2022-09-09T13:08:59;100270.84;;;21.18;55.60
72959;BME280;60008;50.826;6.896;2022-09-09T13:11:36;100272.06;;;20.88;56.61
72959;BME280;60008;50.826;6.896;2022-09-09T13:14:05;100271.94;;;20.54;57.43
72959;BME280;60008;50.826;6.896;2022-09-09T13:16:34;100264.91;;;20.93;57.05
72959;BME280;60008;50.826;6.896;2022-09-09T13:19:09;100261.78;;;21.24;56.73
72959;BME280;60008;50.826;6.896;2022-09-09T13:21:40;100254.53;;;21.25;55.89
72959;BME280;60008;50.826;6.896;2022-09-09T13:26:59;100262.69;;;21.30;55.63
72959;BME280;60008;50.826;6.896;2022-09-09T13:29:28;100251.25;;;21.40;55.71
72959;BME280;60008;50.826;6.896;2022-09-09T13:32:06;100250.91;;;21.19;56.11
72959;BME280;60008;50.826;6.896;2022-09-09T13:34:35;100241.25;;;20.95;56.62
72959;BME280;60008;50.826;6.896;2022-09-09T13:37:05;100250.81;;;21.14;56.46
72959;BME280;60008;50.826;6.896;2022-09-09T13:39:37;100254.16;;;21.50;55.77
72959;BME280;60008;50.826;6.896;2022-09-09T13:42:04;100252.22;;;21.17;56.68
72959;BME280;60008;50.826;6.896;2022-09-09T13:44:34;100253.63;;;21.19;56.95
72959;BME280;60008;50.826;6.896;2022-09-09T13:47:05;100238.06;;;21.55;56.04
72959;BME280;60008;50.826;6.896;2022-09-09T13:49:36;100240.97;;;21.53;55.71
72959;BME280;60008;50.826;6.896;2022-09-09T13:52:17;100241.13;;;21.30;56.20
72959;BME280;60008;50.826;6.896;2022-09-09T13:54:49;100239.75;;;20.88;58.39
72959;BME280;60008;50.826;6.896;2022-09-09T13:57:24;100244.81;;;20.84;59.22
72959;BME280;60008;50.826;6.896;2022-09-09T13:59:53;100231.88;;;21.26;57.88
72959;BME280;60008;50.826;6.896;2022-09-09T14:02:36;100235.84;;;21.52;56.33
72959;BME280;60008;50.826;6.896;2022-09-09T14:05:05;100236.16;;;21.39;57.32
72959;BME280;60008;50.826;6.896;2022-09-09T14:07:32;100231.69;;;21.16;58.10
72959;BME280;60008;50.826;6.896;2022-09-09T14:09:58;100238.88;;;20.99;57.88
72959;BME280;60008;50.826;6.896;2022-09-09T14:12:26;100234.16;;;21.17;58.06
72959;BME280;60008;50.826;6.896;2022-09-09T14:14:53;100244.88;;;21.29;58.48
72959;BME280;60008;50.826;6.896;2022-09-09T14:17:19;100254.03;;;21.45;57.89
72959;BME280;60008;50.826;6.896;2022-09-09T14:19:46;100235.31;;;21.21;58.48
72959;BME280;60008;50.826;6.896;2022-09-09T14:22:12;100244.53;;;21.25;58.25
72959;BME280;60008;50.826;6.896;2022-09-09T14:24:39;100243.56;;;20.75;59.33
72959;BME280;60008;50.826;6.896;2022-09-09T14:27:05;100236.13;;;20.54;60.21
72959;BME280;60008;50.826;6.896;2022-09-09T14:29:32;100237.09;;;20.25;60.29
72959;BME280;60008;50.826;6.896;2022-09-09T14:31:59;100243.88;;;20.15;60.99
72959;BME280;60008;50.826;6.896;2022-09-09T14:34:27;100245.25;;;20.06;62.37
72959;BME280;60008;50.826;6.896;2022-09-09T14:36:53;100243.28;;;20.02;61.61
72959;BME280;60008;50.826;6.896;2022-09-09T14:39:20;100256.97;;;20.12;61.90
72959;BME280;60008;50.826;6.896;2022-09-09T14:41:46;100258.50;;;20.08;61.73
72959;BME280;60008;50.826;6.896;2022-09-09T14:44:13;100263.50;;;19.93;69.75
72959;BME280;60008;50.826;6.896;2022-09-09T14:46:40;100277.72;;;18.81;77.23
72959;BME280;60008;50.826;6.896;2022-09-09T14:49:08;100271.94;;;18.48;80.47
72959;BME280;60008;50.826;6.896;2022-09-09T14:51:36;100263.03;;;18.29;85.88
72959;BME280;60008;50.826;6.896;2022-09-09T14:54:03;100273.78;;;18.04;82.90
72959;BME280;60008;50.826;6.896;2022-09-09T14:56:31;100270.94;;;17.99;86.11
72959;BME280;60008;50.826;6.896;2022-09-09T14:59:01;100266.06;;;17.90;87.07
72959;BME280;60008;50.826;6.896;2022-09-09T15:01:29;100269.19;;;17.87;87.63
72959;BME280;60008;50.826;6.896;2022-09-09T15:04:01;100271.47;;;17.83;87.83
72959;BME280;60008;50.826;6.896;2022-09-09T15:06:30;100263.78;;;17.93;89.80
72959;BME280;60008;50.826;6.896;2022-09-09T15:08:59;100262.28;;;17.97;87.86